createdAt,value
2022-10-29T00:00:56.275Z,17.28
2022-10-29T00:01:56.343Z,17.44
2022-10-29T00:02:56.327Z,17.23
2022-10-29T00:03:56.244Z,17.38
2022-10-29T00:04:56.221Z,17.29
2022-10-29T00:05:56.206Z,17.38
2022-10-29T00:06:56.218Z,17.46
2022-10-29T00:07:56.645Z,17.38
2022-10-29T00:08:56.177Z,17.40
2022-10-29T00:09:56.160Z,17.43
2022-10-29T00:10:56.163Z,17.35
2022-10-29T00:11:56.151Z,17.44
2022-10-29T00:12:56.153Z,17.36
2022-10-29T00:13:56.120Z,17.32
2022-10-29T00:14:56.105Z,17.43
2022-10-29T00:15:56.110Z,17.41
2022-10-29T00:16:56.099Z,17.41
2022-10-29T00:17:56.519Z,17.36
2022-10-29T00:18:56.068Z,17.30
2022-10-29T00:19:56.080Z,17.33
2022-10-29T00:20:56.043Z,17.44
2022-10-29T00:21:56.044Z,17.33
2022-10-29T00:22:56.302Z,17.41
2022-10-29T00:23:55.999Z,17.38
2022-10-29T00:24:55.997Z,17.36
2022-10-29T00:25:55.977Z,17.43
2022-10-29T00:26:55.983Z,17.40
2022-10-29T00:27:55.956Z,17.44
2022-10-29T00:28:55.977Z,17.33
2022-10-29T00:29:55.935Z,17.40
2022-10-29T00:30:55.929Z,17.41
2022-10-29T00:31:56.021Z,17.38
2022-10-29T00:32:56.157Z,17.35
2022-10-29T00:33:55.925Z,17.30
2022-10-29T00:34:55.878Z,17.35
2022-10-29T00:35:55.877Z,17.48
2022-10-29T00:36:55.878Z,17.41
2022-10-29T00:37:56.272Z,17.33
2022-10-29T00:38:55.839Z,17.33
2022-10-29T00:39:55.819Z,17.33
2022-10-29T00:40:55.818Z,17.30
2022-10-29T00:41:55.815Z,17.28
2022-10-29T00:42:55.796Z,17.28
2022-10-29T00:43:55.780Z,17.17
2022-10-29T00:44:55.789Z,17.36
2022-10-29T00:45:55.804Z,17.44
2022-10-29T00:46:55.766Z,17.26
2022-10-29T00:47:56.002Z,17.30
2022-10-29T00:48:55.726Z,17.30
2022-10-29T00:49:55.725Z,17.32
2022-10-29T00:50:55.707Z,17.25
2022-10-29T00:51:55.699Z,17.26
2022-10-29T00:52:55.706Z,17.30
2022-10-29T00:53:55.665Z,17.32
2022-10-29T00:54:55.656Z,17.43
2022-10-29T00:55:55.651Z,17.38
2022-10-29T00:56:55.634Z,17.44
2022-10-29T00:57:55.832Z,17.36
2022-10-29T00:58:55.613Z,17.38
2022-10-29T00:59:55.614Z,17.40
2022-10-29T01:00:55.607Z,17.43
2022-10-29T01:01:55.736Z,17.38
2022-10-29T01:02:55.947Z,17.35
2022-10-29T01:03:55.568Z,17.29
2022-10-29T01:04:55.541Z,17.35
2022-10-29T01:05:55.529Z,17.40
2022-10-29T01:06:55.529Z,17.30
2022-10-29T01:07:55.521Z,17.28
2022-10-29T01:08:55.502Z,17.28
2022-10-29T01:09:55.490Z,17.35
2022-10-29T01:10:55.473Z,17.28
2022-10-29T01:11:55.461Z,17.22
2022-10-29T01:12:55.903Z,17.20
2022-10-29T01:13:55.444Z,17.18
2022-10-29T01:14:55.425Z,17.28
2022-10-29T01:15:55.425Z,17.25
2022-10-29T01:16:55.435Z,17.08
2022-10-29T01:17:55.832Z,17.18
2022-10-29T01:18:55.512Z,17.10
2022-10-29T01:19:55.370Z,17.08
2022-10-29T01:20:55.365Z,17.07
2022-10-29T01:21:55.354Z,17.07
2022-10-29T01:22:55.537Z,17.03
2022-10-29T01:23:55.324Z,17.04
2022-10-29T01:24:55.314Z,17.00
2022-10-29T01:25:55.308Z,17.03
2022-10-29T01:26:55.292Z,17.08
2022-10-29T01:27:55.654Z,16.98
2022-10-29T01:28:55.277Z,17.06
2022-10-29T01:29:55.258Z,17.13
2022-10-29T01:30:55.252Z,17.07
2022-10-29T01:31:55.241Z,17.11
2022-10-29T01:32:55.583Z,17.04
2022-10-29T01:33:55.217Z,17.03
2022-10-29T01:34:55.201Z,17.00
2022-10-29T01:35:55.195Z,16.93
2022-10-29T01:36:55.186Z,16.99
2022-10-29T01:37:55.213Z,16.93
2022-10-29T01:38:55.317Z,17.06
2022-10-29T01:39:55.285Z,16.95
2022-10-29T01:40:55.143Z,17.03
2022-10-29T01:41:55.136Z,17.00
2022-10-29T01:42:55.500Z,16.99
2022-10-29T01:43:55.121Z,17.06
2022-10-29T01:44:55.097Z,17.00
2022-10-29T01:45:55.085Z,16.99
2022-10-29T01:46:55.074Z,17.00
2022-10-29T01:47:55.335Z,17.08
2022-10-29T01:48:55.090Z,17.03
2022-10-29T01:49:55.032Z,17.04
2022-10-29T01:50:55.030Z,17.06
2022-10-29T01:51:55.018Z,17.04
2022-10-29T01:52:55.005Z,17.07
2022-10-29T01:53:55.000Z,17.08
2022-10-29T01:54:54.984Z,17.03
2022-10-29T01:55:54.986Z,17.07
2022-10-29T01:56:54.962Z,16.96
2022-10-29T01:57:55.359Z,16.88
2022-10-29T01:58:54.969Z,16.99
2022-10-29T01:59:56.184Z,16.86
2022-10-29T02:00:54.966Z,16.92
2022-10-29T02:01:54.935Z,16.85
2022-10-29T02:02:54.943Z,16.85
2022-10-29T02:03:54.901Z,16.92
2022-10-29T02:04:54.886Z,16.77
2022-10-29T02:05:54.857Z,16.81
2022-10-29T02:06:54.842Z,16.65
2022-10-29T02:07:54.849Z,16.80
2022-10-29T02:08:54.834Z,16.85
2022-10-29T02:09:54.819Z,16.73
2022-10-29T02:10:54.808Z,16.81
2022-10-29T02:11:54.791Z,16.74
2022-10-29T02:12:55.199Z,16.73
2022-10-29T02:13:54.795Z,16.70
2022-10-29T02:14:54.750Z,16.68
2022-10-29T02:15:54.746Z,16.68
2022-10-29T02:16:54.733Z,16.67
2022-10-29T02:17:54.995Z,16.55
2022-10-29T02:18:54.726Z,16.73
2022-10-29T02:19:54.701Z,16.59
2022-10-29T02:20:54.703Z,16.63
2022-10-29T02:21:54.681Z,16.50
2022-10-29T02:22:54.661Z,16.58
2022-10-29T02:23:54.675Z,16.58
2022-10-29T02:24:54.649Z,16.55
2022-10-29T02:25:54.798Z,16.55
2022-10-29T02:26:54.620Z,16.62
2022-10-29T02:27:54.879Z,16.62
2022-10-29T02:28:54.610Z,16.52
2022-10-29T02:29:54.581Z,16.44
2022-10-29T02:30:54.578Z,16.53
2022-10-29T02:31:54.560Z,16.53
2022-10-29T02:32:54.895Z,16.56
2022-10-29T02:33:54.556Z,16.44
2022-10-29T02:34:54.539Z,16.44
2022-10-29T02:35:54.520Z,16.42
2022-10-29T02:36:54.532Z,16.38
2022-10-29T02:37:54.492Z,16.44
2022-10-29T02:38:54.484Z,16.45
2022-10-29T02:39:54.496Z,16.49
2022-10-29T02:40:54.466Z,16.50
2022-10-29T02:41:54.451Z,16.48
2022-10-29T02:42:54.804Z,16.41
2022-10-29T02:43:54.428Z,16.40
2022-10-29T02:44:54.445Z,16.40
2022-10-29T02:45:54.403Z,16.49
2022-10-29T02:46:54.389Z,16.52
2022-10-29T02:47:54.720Z,16.45
2022-10-29T02:48:54.379Z,16.58
2022-10-29T02:49:54.366Z,16.44
2022-10-29T02:50:54.352Z,16.44
2022-10-29T02:51:54.331Z,16.37
2022-10-29T02:52:54.340Z,16.38
2022-10-29T02:53:54.315Z,16.38
2022-10-29T02:54:54.309Z,16.31
2022-10-29T02:55:54.287Z,16.48
2022-10-29T02:56:54.278Z,16.33
2022-10-29T02:57:54.507Z,16.37
2022-10-29T02:58:54.248Z,16.31
2022-10-29T02:59:54.250Z,16.30
2022-10-29T03:00:54.225Z,16.25
2022-10-29T03:01:54.375Z,16.18
2022-10-29T03:02:54.594Z,16.23
2022-10-29T03:03:54.194Z,16.23
2022-10-29T03:04:54.192Z,16.23
2022-10-29T03:05:54.165Z,16.25
2022-10-29T03:06:54.155Z,16.18
2022-10-29T03:07:54.142Z,16.14
2022-10-29T03:08:54.161Z,16.06
2022-10-29T03:09:54.147Z,16.12
2022-10-29T03:10:54.148Z,16.11
2022-10-29T03:11:54.096Z,16.12
2022-10-29T03:12:54.456Z,16.00
2022-10-29T03:13:54.084Z,16.11
2022-10-29T03:14:54.119Z,16.09
2022-10-29T03:15:54.059Z,15.99
2022-10-29T03:16:54.044Z,16.01
2022-10-29T03:17:54.368Z,15.97
2022-10-29T03:18:54.014Z,15.89
2022-10-29T03:19:54.016Z,16.01
2022-10-29T03:20:54.008Z,15.96
2022-10-29T03:21:53.995Z,15.86
2022-10-29T03:22:53.976Z,15.93
2022-10-29T03:23:53.955Z,15.86
2022-10-29T03:24:53.973Z,15.88
2022-10-29T03:25:55.864Z,15.88
2022-10-29T03:26:53.929Z,15.81
2022-10-29T03:27:54.042Z,15.84
2022-10-29T03:28:53.901Z,15.79
2022-10-29T03:29:53.893Z,15.75
2022-10-29T03:30:53.902Z,15.75
2022-10-29T03:31:53.865Z,15.76
2022-10-29T03:32:54.254Z,15.78
2022-10-29T03:33:53.849Z,15.75
2022-10-29T03:34:57.431Z,15.70
2022-10-29T03:35:54.913Z,15.70
2022-10-29T03:36:53.824Z,15.74
2022-10-29T03:37:53.801Z,15.67
2022-10-29T03:38:53.814Z,15.72
2022-10-29T03:39:53.771Z,15.74
2022-10-29T03:40:53.807Z,15.64
2022-10-29T03:41:53.755Z,15.61
2022-10-29T03:42:54.093Z,15.75
2022-10-29T03:43:53.734Z,15.68
2022-10-29T03:44:53.714Z,15.75
2022-10-29T03:45:53.742Z,15.67
2022-10-29T03:46:53.689Z,15.68
2022-10-29T03:47:53.993Z,15.57
2022-10-29T03:48:53.674Z,15.61
2022-10-29T03:49:53.656Z,15.72
2022-10-29T03:50:53.680Z,15.48
2022-10-29T03:51:53.650Z,15.56
2022-10-29T03:52:53.628Z,15.51
2022-10-29T03:53:53.617Z,15.59
2022-10-29T03:54:53.619Z,15.57
2022-10-29T03:55:53.584Z,15.59
2022-10-29T03:56:53.631Z,15.54
2022-10-29T03:57:53.998Z,15.51
2022-10-29T03:58:53.552Z,15.57
2022-10-29T03:59:53.548Z,15.61
2022-10-29T04:00:53.532Z,15.60
2022-10-29T04:01:53.661Z,15.48
2022-10-29T04:02:53.857Z,15.46
2022-10-29T04:03:53.501Z,15.48
2022-10-29T04:04:53.489Z,15.41
2022-10-29T04:05:53.475Z,15.54
2022-10-29T04:06:53.484Z,15.60
2022-10-29T04:07:53.453Z,15.51
2022-10-29T04:08:53.443Z,15.54
2022-10-29T04:09:53.433Z,15.56
2022-10-29T04:10:53.421Z,15.63
2022-10-29T04:11:53.430Z,15.56
2022-10-29T04:12:53.917Z,15.57
2022-10-29T04:13:53.441Z,15.56
2022-10-29T04:14:53.435Z,15.61
2022-10-29T04:15:53.366Z,15.49
2022-10-29T04:16:53.373Z,15.54
2022-10-29T04:17:53.517Z,15.51
2022-10-29T04:18:53.329Z,15.48
2022-10-29T04:19:53.318Z,15.54
2022-10-29T04:27:07.932Z,15.66
2022-10-29T04:27:08.272Z,15.64
2022-10-29T04:28:54.240Z,15.57
2022-10-29T04:29:53.207Z,15.63
2022-10-29T04:30:53.209Z,15.76
2022-10-29T04:31:53.191Z,15.68
2022-10-29T04:32:53.682Z,15.63
2022-10-29T04:33:53.160Z,15.70
2022-10-29T04:34:53.139Z,15.74
2022-10-29T04:35:53.137Z,15.64
2022-10-29T04:36:53.135Z,15.72
2022-10-29T04:37:53.108Z,15.70
2022-10-29T04:38:53.094Z,15.67
2022-10-29T04:39:53.103Z,15.64
2022-10-29T04:40:53.074Z,15.68
2022-10-29T04:41:53.080Z,15.63
2022-10-29T04:42:53.312Z,15.64
2022-10-29T04:43:53.047Z,15.68
2022-10-29T04:44:53.048Z,15.63
2022-10-29T04:45:53.019Z,15.54
2022-10-29T04:46:53.025Z,15.57
2022-10-29T04:47:53.413Z,15.63
2022-10-29T04:48:53.058Z,15.56
2022-10-29T04:49:52.974Z,15.68
2022-10-29T04:50:52.966Z,15.68
2022-10-29T04:51:52.974Z,15.59
2022-10-29T04:52:52.983Z,15.67
2022-10-29T04:53:52.926Z,15.75
2022-10-29T04:54:52.917Z,15.56
2022-10-29T04:55:52.905Z,15.68
2022-10-29T04:56:52.913Z,15.66
2022-10-29T04:57:53.216Z,15.66
2022-10-29T04:58:52.918Z,15.66
2022-10-29T04:59:52.859Z,15.66
2022-10-29T05:00:52.918Z,15.72
2022-10-29T05:01:52.857Z,15.72
2022-10-29T05:02:53.289Z,15.72
2022-10-29T05:03:55.668Z,15.68
2022-10-29T05:04:53.806Z,15.74
2022-10-29T05:05:52.790Z,15.75
2022-10-29T05:06:52.791Z,15.70
2022-10-29T05:07:52.774Z,15.82
2022-10-29T05:08:52.757Z,15.75
2022-10-29T05:09:52.753Z,15.67
2022-10-29T05:10:52.750Z,15.72
2022-10-29T05:11:52.740Z,15.76
2022-10-29T05:12:52.888Z,15.78
2022-10-29T05:13:52.707Z,15.70
2022-10-29T05:14:52.738Z,15.75
2022-10-29T05:15:53.488Z,15.64
2022-10-29T05:16:52.890Z,15.68
2022-10-29T05:17:52.756Z,15.74
2022-10-29T05:18:52.645Z,15.72
2022-10-29T05:19:52.638Z,15.75
2022-10-29T05:20:52.620Z,15.78
2022-10-29T05:21:52.825Z,15.76
2022-10-29T05:22:52.605Z,15.76
2022-10-29T05:23:52.597Z,15.67
2022-10-29T05:24:52.587Z,15.76
2022-10-29T05:25:52.846Z,15.70
2022-10-29T05:26:52.568Z,15.74
2022-10-29T05:27:52.826Z,15.72
2022-10-29T05:28:52.530Z,15.82
2022-10-29T05:29:52.522Z,15.84
2022-10-29T05:30:52.548Z,15.78
2022-10-29T05:31:52.517Z,15.82
2022-10-29T05:32:52.781Z,15.85
2022-10-29T05:33:55.497Z,15.78
2022-10-29T05:34:52.468Z,15.89
2022-10-29T05:35:52.465Z,15.81
2022-10-29T05:36:52.453Z,15.81
2022-10-29T05:37:52.437Z,15.75
2022-10-29T05:38:52.417Z,15.85
2022-10-29T05:39:52.417Z,15.86
2022-10-29T05:40:52.393Z,16.00
2022-10-29T05:41:52.412Z,15.96
2022-10-29T05:42:52.373Z,15.81
2022-10-29T05:43:52.361Z,16.00
2022-10-29T05:44:52.348Z,15.85
2022-10-29T05:45:52.336Z,15.78
2022-10-29T05:46:52.341Z,15.81
2022-10-29T05:47:52.320Z,15.85
2022-10-29T05:48:52.322Z,15.84
2022-10-29T05:49:52.297Z,15.85
2022-10-29T05:50:52.294Z,15.76
2022-10-29T05:51:52.299Z,15.86
2022-10-29T05:52:52.264Z,15.79
2022-10-29T05:53:52.256Z,15.70
2022-10-29T05:54:52.238Z,15.79
2022-10-29T05:55:52.232Z,15.68
2022-10-29T05:56:52.225Z,15.78
2022-10-29T05:57:52.201Z,15.70
2022-10-29T05:58:52.189Z,15.72
2022-10-29T05:59:52.187Z,15.72
2022-10-29T06:00:52.182Z,15.61
2022-10-29T06:01:52.374Z,15.75
2022-10-29T06:02:52.243Z,15.79
2022-10-29T06:04:52.152Z,15.59
2022-10-29T06:05:52.122Z,15.61
2022-10-29T06:06:52.222Z,15.72
2022-10-29T06:07:52.087Z,15.70
2022-10-29T06:08:52.078Z,15.66
2022-10-29T06:09:52.073Z,15.74
2022-10-29T06:10:52.057Z,15.68
2022-10-29T06:11:52.070Z,15.75
2022-10-29T06:12:52.037Z,15.70
2022-10-29T06:13:52.031Z,15.75
2022-10-29T06:14:52.013Z,15.70
2022-10-29T06:15:51.994Z,15.75
2022-10-29T06:16:52.004Z,15.67
2022-10-29T06:17:51.971Z,15.61
2022-10-29T06:18:51.961Z,15.70
2022-10-29T06:19:51.957Z,15.67
2022-10-29T06:20:51.957Z,15.67
2022-10-29T06:21:54.155Z,15.59
2022-10-29T06:22:51.917Z,15.75
2022-10-29T06:23:51.911Z,15.66
2022-10-29T06:24:51.899Z,15.70
2022-10-29T06:25:51.893Z,15.74
2022-10-29T06:26:51.889Z,15.75
2022-10-29T06:27:51.868Z,15.81
2022-10-29T06:28:51.853Z,15.75
2022-10-29T06:29:51.848Z,15.78
2022-10-29T06:30:51.823Z,15.75
2022-10-29T06:31:51.838Z,15.79
2022-10-29T06:32:51.816Z,15.81
2022-10-29T06:33:51.804Z,15.72
2022-10-29T06:34:51.782Z,15.76
2022-10-29T06:35:51.782Z,15.75
2022-10-29T06:36:51.802Z,15.76
2022-10-29T06:37:51.753Z,15.78
2022-10-29T06:38:51.740Z,15.81
2022-10-29T06:39:51.733Z,15.82
2022-10-29T06:40:51.739Z,15.74
2022-10-29T06:41:51.718Z,15.81
2022-10-29T06:42:51.704Z,15.84
2022-10-29T06:43:51.691Z,15.81
2022-10-29T06:44:51.670Z,15.85
2022-10-29T06:45:51.669Z,15.84
2022-10-29T06:46:51.658Z,15.76
2022-10-29T06:47:51.648Z,15.85
2022-10-29T06:48:51.624Z,15.79
2022-10-29T06:49:51.612Z,15.85
2022-10-29T06:50:51.613Z,15.84
2022-10-29T06:51:51.627Z,15.86
2022-10-29T06:52:51.606Z,15.94
2022-10-29T06:53:51.570Z,15.89
2022-10-29T06:54:51.559Z,15.94
2022-10-29T06:55:51.556Z,15.96
2022-10-29T06:56:51.559Z,15.93
2022-10-29T06:57:51.526Z,15.97
2022-10-29T06:58:51.514Z,15.93
2022-10-29T06:59:51.504Z,15.96
2022-10-29T07:00:51.743Z,16.03
2022-10-29T07:01:51.582Z,15.88
2022-10-29T07:02:51.474Z,16.00
2022-10-29T07:03:51.465Z,16.06
2022-10-29T07:04:51.454Z,16.03
2022-10-29T07:05:51.433Z,16.03
2022-10-29T07:06:51.443Z,16.04
2022-10-29T07:07:51.415Z,16.03
2022-10-29T07:08:51.424Z,16.06
2022-10-29T07:09:51.396Z,16.06
2022-10-29T07:10:51.396Z,15.99
2022-10-29T07:11:51.391Z,16.03
2022-10-29T07:12:51.365Z,15.97
2022-10-29T07:13:51.356Z,16.01
2022-10-29T07:14:51.336Z,16.07
2022-10-29T07:15:51.325Z,15.99
2022-10-29T07:16:51.335Z,16.11
2022-10-29T07:17:51.310Z,16.06
2022-10-29T07:18:51.302Z,16.06
2022-10-29T07:19:51.282Z,16.00
2022-10-29T07:20:51.277Z,16.03
2022-10-29T07:21:51.280Z,16.11
2022-10-29T07:22:51.246Z,16.09
2022-10-29T07:23:51.242Z,16.00
2022-10-29T07:24:52.318Z,16.04
2022-10-29T07:25:51.213Z,16.14
2022-10-29T07:26:51.213Z,16.23
2022-10-29T07:27:51.312Z,16.14
2022-10-29T07:28:51.177Z,16.12
2022-10-29T07:29:51.173Z,16.07
2022-10-29T07:30:51.170Z,16.18
2022-10-29T07:31:51.181Z,16.18
2022-10-29T07:32:51.140Z,16.16
2022-10-29T07:33:51.127Z,16.16
2022-10-29T07:34:51.114Z,16.33
2022-10-29T07:35:51.101Z,16.26
2022-10-29T07:36:51.101Z,16.33
2022-10-29T07:37:51.080Z,16.26
2022-10-29T07:38:51.079Z,16.37
2022-10-29T07:39:51.061Z,16.44
2022-10-29T07:40:51.075Z,16.31
2022-10-29T07:41:52.178Z,16.45
2022-10-29T07:42:51.039Z,16.49
2022-10-29T07:43:51.034Z,16.42
2022-10-29T07:44:51.002Z,16.50
2022-10-29T07:45:50.990Z,16.52
2022-10-29T07:46:51.000Z,16.50
2022-10-29T07:47:50.977Z,16.67
2022-10-29T07:48:50.961Z,16.73
2022-10-29T07:49:50.953Z,16.68
2022-10-29T07:50:50.934Z,16.75
2022-10-29T07:51:50.950Z,16.70
2022-10-29T07:52:50.918Z,16.81
2022-10-29T07:53:50.909Z,16.81
2022-10-29T07:54:50.895Z,16.80
2022-10-29T07:55:50.891Z,16.83
2022-10-29T07:56:50.899Z,16.88
2022-10-29T07:57:50.854Z,16.83
2022-10-29T07:58:50.850Z,16.88
2022-10-29T07:59:50.833Z,16.90
2022-10-29T08:00:51.031Z,16.81
2022-10-29T08:01:50.917Z,16.93
2022-10-29T08:02:50.804Z,16.88
2022-10-29T08:03:50.798Z,16.86
2022-10-29T08:04:50.777Z,16.98
2022-10-29T08:05:56.210Z,16.98
2022-10-29T08:06:51.769Z,17.00
2022-10-29T08:07:50.755Z,17.10
2022-10-29T08:08:50.739Z,17.06
2022-10-29T08:09:50.720Z,17.11
2022-10-29T08:10:50.718Z,17.14
2022-10-29T08:11:50.734Z,17.15
2022-10-29T08:12:50.713Z,17.23
2022-10-29T08:13:50.681Z,17.26
2022-10-29T08:14:50.661Z,17.22
2022-10-29T08:15:50.655Z,17.29
2022-10-29T08:16:50.664Z,17.28
2022-10-29T08:17:50.635Z,17.26
2022-10-29T08:18:50.633Z,17.30
2022-10-29T08:19:50.611Z,17.29
2022-10-29T08:20:50.622Z,17.33
2022-10-29T08:21:50.603Z,17.26
2022-10-29T08:22:50.580Z,17.35
2022-10-29T08:23:50.557Z,17.35
2022-10-29T08:24:50.546Z,17.26
2022-10-29T08:25:50.544Z,17.35
2022-10-29T08:26:50.545Z,17.40
2022-10-29T08:27:50.559Z,17.44
2022-10-29T08:28:50.521Z,17.48
2022-10-29T08:29:50.488Z,17.41
2022-10-29T08:30:50.485Z,17.43
2022-10-29T08:31:50.479Z,17.54
2022-10-29T08:32:50.472Z,17.41
2022-10-29T08:33:50.446Z,17.57
2022-10-29T08:34:50.453Z,17.62
2022-10-29T08:35:51.176Z,17.50
2022-10-29T08:36:50.421Z,17.59
2022-10-29T08:37:50.401Z,17.57
2022-10-29T08:38:50.392Z,17.70
2022-10-29T08:39:50.395Z,17.70
2022-10-29T08:40:50.369Z,17.69
2022-10-29T08:41:50.377Z,17.63
2022-10-29T08:42:50.346Z,17.73
2022-10-29T08:43:50.365Z,17.73
2022-10-29T08:44:50.334Z,17.79
2022-10-29T08:45:50.310Z,17.76
2022-10-29T08:46:50.308Z,17.79
2022-10-29T08:47:50.280Z,17.84
2022-10-29T08:48:50.275Z,17.87
2022-10-29T08:49:50.264Z,17.85
2022-10-29T08:50:50.249Z,17.88
2022-10-29T08:51:50.258Z,17.92
2022-10-29T08:52:58.739Z,17.88
2022-10-29T08:54:10.302Z,17.88
2022-10-29T08:54:51.207Z,17.97
2022-10-29T08:55:50.187Z,17.87
2022-10-29T08:56:50.207Z,17.91
2022-10-29T08:57:50.361Z,17.89
2022-10-29T08:58:50.166Z,17.95
2022-10-29T08:59:50.141Z,18.02
2022-10-29T09:00:50.199Z,17.91
2022-10-29T09:01:50.271Z,18.06
2022-10-29T09:02:50.113Z,18.07
2022-10-29T09:03:50.110Z,18.03
2022-10-29T09:04:50.086Z,18.10
2022-10-29T09:05:50.073Z,18.07
2022-10-29T09:06:50.089Z,18.10
2022-10-29T09:07:50.048Z,18.13
2022-10-29T09:08:50.046Z,18.22
2022-10-29T09:09:50.034Z,18.12
2022-10-29T09:10:50.024Z,18.21
2022-10-29T09:11:50.021Z,18.29
2022-10-29T09:12:49.994Z,18.25
2022-10-29T09:13:49.995Z,18.27
2022-10-29T09:14:49.972Z,18.28
2022-10-29T09:15:53.454Z,18.39
2022-10-29T09:16:50.992Z,18.49
2022-10-29T09:17:49.947Z,18.58
2022-10-29T09:18:49.932Z,18.61
2022-10-29T09:19:49.914Z,18.80
2022-10-29T09:20:49.905Z,18.97
2022-10-29T09:21:49.913Z,19.10
2022-10-29T09:22:49.887Z,19.32
2022-10-29T09:23:49.873Z,19.46
2022-10-29T09:24:49.865Z,19.50
2022-10-29T09:25:49.849Z,19.65
2022-10-29T09:26:49.853Z,19.78
2022-10-29T09:27:49.824Z,19.76
2022-10-29T09:28:49.821Z,19.86
2022-10-29T09:29:49.803Z,19.83
2022-10-29T09:30:49.791Z,19.79
2022-10-29T09:31:49.803Z,19.83
2022-10-29T09:33:49.756Z,19.83
2022-10-29T09:34:49.760Z,19.90
2022-10-29T09:35:49.738Z,19.91
2022-10-29T09:36:49.735Z,19.90
2022-10-29T09:37:49.730Z,19.83
2022-10-29T09:38:49.702Z,19.90
2022-10-29T09:39:49.688Z,19.86
2022-10-29T09:40:49.704Z,19.87
2022-10-29T09:41:49.681Z,19.80
2022-10-29T09:42:49.669Z,19.86
2022-10-29T09:43:49.646Z,19.84
2022-10-29T09:44:49.654Z,19.87
2022-10-29T09:45:49.621Z,19.86
2022-10-29T09:46:49.629Z,19.97
2022-10-29T09:47:49.594Z,19.83
2022-10-29T09:48:49.609Z,19.97
2022-10-29T09:49:49.577Z,19.84
2022-10-29T09:50:49.571Z,19.90
2022-10-29T09:51:49.574Z,19.94
2022-10-29T09:52:49.547Z,19.93
2022-10-29T09:53:49.540Z,20.08
2022-10-29T09:54:49.528Z,20.00
2022-10-29T09:55:49.516Z,20.09
2022-10-29T09:56:55.702Z,20.20
2022-10-29T09:57:50.488Z,20.08
2022-10-29T09:58:49.475Z,20.00
2022-10-29T09:59:49.461Z,20.02
2022-10-29T10:00:49.465Z,20.10
2022-10-29T10:01:49.535Z,19.98
2022-10-29T10:02:49.531Z,19.95
2022-10-29T10:03:49.487Z,20.05
2022-10-29T10:04:49.433Z,20.00
2022-10-29T10:05:49.402Z,20.13
2022-10-29T10:06:49.412Z,20.18
2022-10-29T10:07:49.379Z,20.21
2022-10-29T10:08:49.371Z,20.21
2022-10-29T10:09:49.350Z,20.16
2022-10-29T10:10:49.338Z,20.30
2022-10-29T10:11:49.350Z,20.38
2022-10-29T10:12:49.322Z,20.38
2022-10-29T10:13:49.311Z,20.46
2022-10-29T10:14:49.293Z,20.49
2022-10-29T10:15:49.283Z,20.47
2022-10-29T10:16:49.286Z,20.46
2022-10-29T10:17:49.274Z,20.50
2022-10-29T10:18:49.258Z,20.53
2022-10-29T10:19:49.243Z,20.53
2022-10-29T10:20:49.253Z,20.56
2022-10-29T10:21:49.239Z,20.54
2022-10-29T10:22:49.203Z,20.62
2022-10-29T10:23:49.196Z,20.68
2022-10-29T10:24:49.179Z,20.77
2022-10-29T10:25:49.193Z,20.77
2022-10-29T10:26:49.180Z,20.69
2022-10-29T10:27:49.158Z,20.89
2022-10-29T10:28:49.135Z,20.77
2022-10-29T10:29:49.121Z,20.91
2022-10-29T10:30:49.122Z,20.89
2022-10-29T10:31:49.114Z,20.93
2022-10-29T10:32:49.098Z,20.87
2022-10-29T10:33:49.078Z,20.99
2022-10-29T10:34:49.074Z,21.01
2022-10-29T10:35:49.067Z,21.05
2022-10-29T10:36:49.077Z,21.04
2022-10-29T10:37:49.038Z,21.09
2022-10-29T10:38:49.022Z,21.14
2022-10-29T10:39:49.009Z,21.08
2022-10-29T10:40:49.100Z,21.16
2022-10-29T10:41:49.010Z,21.11
2022-10-29T10:42:49.023Z,21.17
2022-10-29T10:43:48.966Z,21.08
2022-10-29T10:44:48.962Z,21.16
2022-10-29T10:45:49.164Z,21.09
2022-10-29T10:46:48.951Z,21.14
2022-10-29T10:47:48.958Z,21.16
2022-10-29T10:48:48.911Z,21.01
2022-10-29T10:49:48.906Z,20.91
2022-10-29T10:50:48.887Z,20.89
2022-10-29T10:51:48.891Z,20.83
2022-10-29T10:52:48.892Z,20.81
2022-10-29T10:53:48.855Z,20.83
2022-10-29T10:54:48.963Z,20.83
2022-10-29T10:55:48.845Z,20.72
2022-10-29T10:56:48.834Z,20.81
2022-10-29T10:57:48.812Z,20.71
2022-10-29T10:58:48.802Z,20.76
2022-10-29T10:59:48.784Z,20.72
2022-10-29T11:00:48.849Z,20.62
2022-10-29T11:01:48.964Z,20.68
2022-10-29T11:02:48.773Z,20.68
2022-10-29T11:03:48.741Z,20.59
2022-10-29T11:04:48.739Z,20.68
2022-10-29T11:05:48.726Z,20.66
2022-10-29T11:06:48.735Z,20.65
2022-10-29T11:07:48.697Z,20.66
2022-10-29T11:08:48.708Z,20.79
2022-10-29T11:09:48.687Z,20.59
2022-10-29T11:10:48.664Z,20.71
2022-10-29T11:11:48.795Z,20.83
2022-10-29T11:12:48.645Z,20.74
2022-10-29T11:13:48.636Z,20.81
2022-10-29T11:14:48.625Z,20.74
2022-10-29T11:15:48.605Z,20.89
2022-10-29T11:16:48.610Z,20.96
2022-10-29T11:17:52.994Z,20.91
2022-10-29T11:18:49.596Z,20.96
2022-10-29T11:19:48.559Z,20.89
2022-10-29T11:20:48.554Z,20.93
2022-10-29T11:21:48.561Z,20.96
2022-10-29T11:22:48.533Z,20.98
2022-10-29T11:23:48.525Z,21.01
2022-10-29T11:24:48.528Z,21.01
2022-10-29T11:25:48.491Z,21.13
2022-10-29T11:26:48.705Z,21.09
2022-10-29T11:27:48.488Z,21.16
2022-10-29T11:28:48.473Z,21.19
2022-10-29T11:29:50.019Z,21.34
2022-10-29T11:30:55.254Z,21.32
2022-10-29T11:31:48.516Z,21.46
2022-10-29T11:32:48.413Z,21.44
2022-10-29T11:33:48.408Z,21.64
2022-10-29T11:34:48.397Z,21.74
2022-10-29T11:35:48.393Z,21.75
2022-10-29T11:36:48.389Z,21.85
2022-10-29T11:37:48.355Z,21.81
2022-10-29T11:38:48.353Z,21.82
2022-10-29T11:39:48.333Z,22.04
2022-10-29T11:40:48.349Z,21.99
2022-10-29T11:41:48.337Z,22.06
2022-10-29T11:42:48.319Z,22.09
2022-10-29T11:43:48.295Z,22.14
2022-10-29T11:44:48.287Z,22.37
2022-10-29T11:45:48.264Z,22.29
2022-10-29T11:46:48.271Z,22.16
2022-10-29T11:47:48.249Z,22.23
2022-10-29T11:48:48.241Z,22.14
2022-10-29T11:49:48.222Z,22.19
2022-10-29T11:50:48.227Z,22.12
2022-10-29T11:51:48.222Z,22.31
2022-10-29T11:52:48.187Z,22.20
2022-10-29T11:53:48.175Z,22.28
2022-10-29T11:54:48.174Z,22.31
2022-10-29T11:55:49.802Z,22.22
2022-10-29T11:56:48.201Z,22.31
2022-10-29T11:57:48.138Z,22.34
2022-10-29T11:58:48.130Z,22.31
2022-10-29T11:59:48.119Z,22.28
2022-10-29T12:00:48.106Z,22.22
2022-10-29T12:01:48.131Z,22.28
2022-10-29T12:02:48.083Z,22.37
2022-10-29T12:03:48.143Z,22.34
2022-10-29T12:04:48.069Z,22.37
2022-10-29T12:05:48.071Z,22.35
2022-10-29T12:06:48.062Z,22.29
2022-10-29T12:07:48.030Z,22.31
2022-10-29T12:08:48.017Z,22.31
2022-10-29T12:09:48.004Z,22.28
2022-10-29T12:10:47.995Z,22.23
2022-10-29T12:11:47.993Z,22.14
2022-10-29T12:12:48.019Z,22.10
2022-10-29T12:13:47.959Z,22.13
2022-10-29T12:14:47.952Z,22.17
2022-10-29T12:15:47.939Z,22.27
2022-10-29T12:16:47.941Z,22.39
2022-10-29T12:17:47.995Z,22.44
2022-10-29T12:18:47.902Z,22.46
2022-10-29T12:19:47.893Z,22.59
2022-10-29T12:20:47.883Z,22.50
2022-10-29T12:21:47.882Z,22.59
2022-10-29T12:22:47.863Z,22.71
2022-10-29T12:23:47.849Z,22.64
2022-10-29T12:24:47.919Z,22.75
2022-10-29T12:25:47.825Z,22.72
2022-10-29T12:26:47.820Z,22.75
2022-10-29T12:27:47.803Z,22.77
2022-10-29T12:28:47.824Z,22.84
2022-10-29T12:29:47.788Z,22.78
2022-10-29T12:30:47.785Z,22.86
2022-10-29T12:31:47.774Z,22.74
2022-10-29T12:32:47.751Z,22.65
2022-10-29T12:33:47.739Z,22.71
2022-10-29T12:34:47.729Z,22.74
2022-10-29T12:35:47.744Z,22.57
2022-10-29T12:36:49.801Z,22.57
2022-10-29T12:37:47.688Z,22.74
2022-10-29T12:38:47.680Z,22.64
2022-10-29T12:39:47.673Z,22.62
2022-10-29T12:40:47.658Z,22.62
2022-10-29T12:41:47.657Z,22.52
2022-10-29T12:42:47.636Z,22.50
2022-10-29T12:43:47.628Z,22.43
2022-10-29T12:44:47.637Z,22.52
2022-10-29T12:46:14.446Z,22.50
2022-10-29T12:46:48.602Z,22.43
2022-10-29T12:47:47.583Z,22.43
2022-10-29T12:48:47.564Z,22.37
2022-10-29T12:49:47.573Z,22.46
2022-10-29T12:50:47.538Z,22.56
2022-10-29T12:51:47.589Z,22.43
2022-10-29T12:52:47.525Z,22.52
2022-10-29T12:53:47.507Z,22.37
2022-10-29T12:54:47.510Z,22.39
2022-10-29T12:55:47.492Z,22.35
2022-10-29T12:56:49.492Z,22.31
2022-10-29T12:57:47.469Z,22.29
2022-10-29T12:58:47.455Z,22.34
2022-10-29T12:59:47.449Z,22.37
2022-10-29T13:00:47.659Z,22.32